sensor_id;sensor_type;location;lat;lon;timestamp;P1;durP1;ratioP1;P2;durP2;ratioP2
74471;SDS011;62920;53.572;10.050;2023-08-24T00:00:37;6.10;;;2.17;;
74471;SDS011;62920;53.572;10.050;2023-08-24T00:03:03;5.82;;;2.65;;
74471;SDS011;62920;53.572;10.050;2023-08-24T00:05:29;5.03;;;1.92;;
74471;SDS011;62920;53.572;10.050;2023-08-24T00:07:54;6.30;;;1.70;;
74471;SDS011;62920;53.572;10.050;2023-08-24T00:10:19;8.35;;;1.67;;
74471;SDS011;62920;53.572;10.050;2023-08-24T00:12:45;4.13;;;2.05;;
74471;SDS011;62920;53.572;10.050;2023-08-24T00:15:10;5.28;;;1.83;;
74471;SDS011;62920;53.572;10.050;2023-08-24T00:17:36;6.82;;;2.10;;
74471;SDS011;62920;53.572;10.050;2023-08-24T00:20:03;8.18;;;1.67;;
74471;SDS011;62920;53.572;10.050;2023-08-24T00:22:30;5.88;;;1.80;;
74471;SDS011;62920;53.572;10.050;2023-08-24T00:24:55;7.63;;;1.70;;
74471;SDS011;62920;53.572;10.050;2023-08-24T00:27:20;6.13;;;2.20;;
74471;SDS011;62920;53.572;10.050;2023-08-24T00:29:46;5.28;;;1.60;;
74471;SDS011;62920;53.572;10.050;2023-08-24T00:32:11;7.38;;;1.52;;
74471;SDS011;62920;53.572;10.050;2023-08-24T00:34:37;8.65;;;1.70;;
74471;SDS011;62920;53.572;10.050;2023-08-24T00:37:02;5.07;;;1.55;;
74471;SDS011;62920;53.572;10.050;2023-08-24T00:39:27;7.35;;;1.52;;
74471;SDS011;62920;53.572;10.050;2023-08-24T00:41:53;6.22;;;1.45;;
74471;SDS011;62920;53.572;10.050;2023-08-24T00:44:19;8.40;;;1.65;;
74471;SDS011;62920;53.572;10.050;2023-08-24T00:46:45;5.68;;;1.60;;
74471;SDS011;62920;53.572;10.050;2023-08-24T00:49:10;3.47;;;1.45;;
74471;SDS011;62920;53.572;10.050;2023-08-24T00:51:36;3.95;;;1.60;;
74471;SDS011;62920;53.572;10.050;2023-08-24T00:54:01;6.40;;;1.77;;
74471;SDS011;62920;53.572;10.050;2023-08-24T00:56:26;5.93;;;1.40;;
74471;SDS011;62920;53.572;10.050;2023-08-24T00:58:52;6.28;;;1.70;;
74471;SDS011;62920;53.572;10.050;2023-08-24T01:01:18;5.70;;;1.60;;
74471;SDS011;62920;53.572;10.050;2023-08-24T01:03:44;5.05;;;1.48;;
74471;SDS011;62920;53.572;10.050;2023-08-24T01:06:10;6.57;;;1.65;;
74471;SDS011;62920;53.572;10.050;2023-08-24T01:08:35;7.90;;;1.80;;
74471;SDS011;62920;53.572;10.050;2023-08-24T01:14:09;6.47;;;1.75;;
74471;SDS011;62920;53.572;10.050;2023-08-24T01:16:34;4.97;;;1.50;;
74471;SDS011;62920;53.572;10.050;2023-08-24T01:19:05;5.72;;;2.17;;
74471;SDS011;62920;53.572;10.050;2023-08-24T01:21:32;7.32;;;1.50;;
74471;SDS011;62920;53.572;10.050;2023-08-24T01:24:13;7.13;;;1.92;;
74471;SDS011;62920;53.572;10.050;2023-08-24T01:26:42;6.82;;;1.77;;
74471;SDS011;62920;53.572;10.050;2023-08-24T01:29:08;6.28;;;1.50;;
74471;SDS011;62920;53.572;10.050;2023-08-24T01:31:34;7.03;;;1.80;;
74471;SDS011;62920;53.572;10.050;2023-08-24T01:34:00;7.35;;;1.55;;
74471;SDS011;62920;53.572;10.050;2023-08-24T01:39:02;4.90;;;1.50;;
74471;SDS011;62920;53.572;10.050;2023-08-24T01:41:36;6.40;;;2.10;;
74471;SDS011;62920;53.572;10.050;2023-08-24T01:44:04;7.20;;;1.95;;
74471;SDS011;62920;53.572;10.050;2023-08-24T01:46:32;6.45;;;1.90;;
74471;SDS011;62920;53.572;10.050;2023-08-24T01:48:58;5.30;;;2.17;;
74471;SDS011;62920;53.572;10.050;2023-08-24T01:51:24;7.85;;;1.90;;
74471;SDS011;62920;53.572;10.050;2023-08-24T01:53:49;4.97;;;1.58;;
74471;SDS011;62920;53.572;10.050;2023-08-24T01:56:15;5.47;;;1.90;;
74471;SDS011;62920;53.572;10.050;2023-08-24T01:58:41;4.85;;;1.80;;
74471;SDS011;62920;53.572;10.050;2023-08-24T02:01:07;5.18;;;1.63;;
74471;SDS011;62920;53.572;10.050;2023-08-24T02:03:33;5.93;;;1.80;;
74471;SDS011;62920;53.572;10.050;2023-08-24T02:05:59;7.75;;;2.03;;
74471;SDS011;62920;53.572;10.050;2023-08-24T02:08:24;7.70;;;1.75;;
74471;SDS011;62920;53.572;10.050;2023-08-24T02:10:50;6.13;;;1.88;;
74471;SDS011;62920;53.572;10.050;2023-08-24T02:13:15;6.75;;;2.08;;
74471;SDS011;62920;53.572;10.050;2023-08-24T02:15:41;5.72;;;1.63;;
74471;SDS011;62920;53.572;10.050;2023-08-24T02:18:06;9.18;;;1.90;;
74471;SDS011;62920;53.572;10.050;2023-08-24T02:20:36;7.53;;;1.60;;
74471;SDS011;62920;53.572;10.050;2023-08-24T02:23:02;8.65;;;2.05;;
74471;SDS011;62920;53.572;10.050;2023-08-24T02:25:28;7.50;;;1.92;;
74471;SDS011;62920;53.572;10.050;2023-08-24T02:27:53;6.10;;;1.85;;
74471;SDS011;62920;53.572;10.050;2023-08-24T02:30:19;5.35;;;1.63;;
74471;SDS011;62920;53.572;10.050;2023-08-24T02:32:44;6.75;;;1.90;;
74471;SDS011;62920;53.572;10.050;2023-08-24T02:35:09;4.43;;;1.90;;
74471;SDS011;62920;53.572;10.050;2023-08-24T02:37:35;7.25;;;1.67;;
74471;SDS011;62920;53.572;10.050;2023-08-24T02:40:00;5.10;;;1.90;;
74471;SDS011;62920;53.572;10.050;2023-08-24T02:42:25;3.97;;;1.88;;
74471;SDS011;62920;53.572;10.050;2023-08-24T02:44:52;6.03;;;2.00;;
74471;SDS011;62920;53.572;10.050;2023-08-24T02:47:17;6.88;;;2.15;;
74471;SDS011;62920;53.572;10.050;2023-08-24T02:49:42;6.88;;;2.00;;
74471;SDS011;62920;53.572;10.050;2023-08-24T02:52:08;5.00;;;1.75;;
74471;SDS011;62920;53.572;10.050;2023-08-24T02:54:33;8.10;;;2.30;;
74471;SDS011;62920;53.572;10.050;2023-08-24T02:56:59;7.85;;;2.30;;
74471;SDS011;62920;53.572;10.050;2023-08-24T02:59:24;6.53;;;2.00;;
74471;SDS011;62920;53.572;10.050;2023-08-24T03:01:51;7.10;;;1.80;;
74471;SDS011;62920;53.572;10.050;2023-08-24T03:04:16;5.85;;;2.10;;
74471;SDS011;62920;53.572;10.050;2023-08-24T03:06:43;6.60;;;2.38;;
74471;SDS011;62920;53.572;10.050;2023-08-24T03:09:09;7.35;;;2.42;;
74471;SDS011;62920;53.572;10.050;2023-08-24T03:11:34;5.97;;;2.20;;
74471;SDS011;62920;53.572;10.050;2023-08-24T03:13:59;9.65;;;2.55;;
74471;SDS011;62920;53.572;10.050;2023-08-24T03:16:25;7.15;;;2.20;;
74471;SDS011;62920;53.572;10.050;2023-08-24T03:18:51;6.45;;;2.63;;
74471;SDS011;62920;53.572;10.050;2023-08-24T03:21:16;10.05;;;2.92;;
74471;SDS011;62920;53.572;10.050;2023-08-24T03:23:42;8.13;;;2.97;;
74471;SDS011;62920;53.572;10.050;2023-08-24T03:26:07;7.07;;;2.50;;
74471;SDS011;62920;53.572;10.050;2023-08-24T03:28:32;4.68;;;2.47;;
74471;SDS011;62920;53.572;10.050;2023-08-24T03:30:58;6.63;;;2.28;;
74471;SDS011;62920;53.572;10.050;2023-08-24T03:33:23;10.88;;;2.88;;
74471;SDS011;62920;53.572;10.050;2023-08-24T03:35:49;9.13;;;2.65;;
74471;SDS011;62920;53.572;10.050;2023-08-24T03:38:14;6.80;;;2.88;;
74471;SDS011;62920;53.572;10.050;2023-08-24T03:40:40;9.75;;;3.17;;
74471;SDS011;62920;53.572;10.050;2023-08-24T03:43:05;6.75;;;3.00;;
74471;SDS011;62920;53.572;10.050;2023-08-24T03:45:31;5.85;;;2.72;;
74471;SDS011;62920;53.572;10.050;2023-08-24T03:47:56;8.75;;;3.15;;
74471;SDS011;62920;53.572;10.050;2023-08-24T03:50:21;8.25;;;3.13;;
74471;SDS011;62920;53.572;10.050;2023-08-24T03:52:48;7.28;;;2.95;;
74471;SDS011;62920;53.572;10.050;2023-08-24T03:55:14;7.43;;;3.28;;
74471;SDS011;62920;53.572;10.050;2023-08-24T03:57:40;8.15;;;3.20;;
74471;SDS011;62920;53.572;10.050;2023-08-24T04:00:06;6.95;;;3.17;;
74471;SDS011;62920;53.572;10.050;2023-08-24T04:02:35;12.13;;;3.20;;
74471;SDS011;62920;53.572;10.050;2023-08-24T04:05:01;9.18;;;3.10;;
74471;SDS011;62920;53.572;10.050;2023-08-24T04:07:27;7.03;;;2.90;;
74471;SDS011;62920;53.572;10.050;2023-08-24T04:09:52;5.55;;;2.75;;
74471;SDS011;62920;53.572;10.050;2023-08-24T04:12:17;6.45;;;3.38;;
74471;SDS011;62920;53.572;10.050;2023-08-24T04:14:43;6.65;;;2.88;;
74471;SDS011;62920;53.572;10.050;2023-08-24T04:17:08;6.68;;;2.80;;
74471;SDS011;62920;53.572;10.050;2023-08-24T04:19:35;7.68;;;3.00;;
74471;SDS011;62920;53.572;10.050;2023-08-24T04:22:02;7.60;;;2.70;;
74471;SDS011;62920;53.572;10.050;2023-08-24T04:24:28;8.15;;;2.95;;
74471;SDS011;62920;53.572;10.050;2023-08-24T04:26:54;8.75;;;3.40;;
74471;SDS011;62920;53.572;10.050;2023-08-24T04:29:19;8.02;;;3.50;;
74471;SDS011;62920;53.572;10.050;2023-08-24T04:31:44;6.75;;;3.10;;
74471;SDS011;62920;53.572;10.050;2023-08-24T04:34:10;8.75;;;3.20;;
74471;SDS011;62920;53.572;10.050;2023-08-24T04:36:36;7.45;;;3.40;;
74471;SDS011;62920;53.572;10.050;2023-08-24T04:39:02;6.22;;;3.10;;
74471;SDS011;62920;53.572;10.050;2023-08-24T04:41:27;8.48;;;3.08;;
74471;SDS011;62920;53.572;10.050;2023-08-24T04:43:53;6.97;;;3.30;;
74471;SDS011;62920;53.572;10.050;2023-08-24T04:46:19;6.97;;;2.85;;
74471;SDS011;62920;53.572;10.050;2023-08-24T04:48:45;7.30;;;3.30;;
74471;SDS011;62920;53.572;10.050;2023-08-24T04:51:10;8.73;;;3.97;;
74471;SDS011;62920;53.572;10.050;2023-08-24T04:53:35;9.85;;;4.50;;
74471;SDS011;62920;53.572;10.050;2023-08-24T04:56:01;6.20;;;3.10;;
74471;SDS011;62920;53.572;10.050;2023-08-24T04:58:26;6.20;;;3.30;;
74471;SDS011;62920;53.572;10.050;2023-08-24T05:00:52;9.13;;;3.63;;
74471;SDS011;62920;53.572;10.050;2023-08-24T05:03:17;7.50;;;3.35;;
74471;SDS011;62920;53.572;10.050;2023-08-24T05:05:42;8.48;;;3.65;;
74471;SDS011;62920;53.572;10.050;2023-08-24T05:08:08;10.30;;;3.58;;
74471;SDS011;62920;53.572;10.050;2023-08-24T05:10:36;11.00;;;3.95;;
74471;SDS011;62920;53.572;10.050;2023-08-24T05:13:02;7.65;;;3.72;;
74471;SDS011;62920;53.572;10.050;2023-08-24T05:15:28;7.43;;;3.45;;
74471;SDS011;62920;53.572;10.050;2023-08-24T05:17:53;5.93;;;2.85;;
74471;SDS011;62920;53.572;10.050;2023-08-24T05:20:21;5.88;;;2.88;;
74471;SDS011;62920;53.572;10.050;2023-08-24T05:22:47;7.18;;;3.80;;
74471;SDS011;62920;53.572;10.050;2023-08-24T05:25:12;7.47;;;3.67;;
74471;SDS011;62920;53.572;10.050;2023-08-24T05:27:38;10.23;;;3.78;;
74471;SDS011;62920;53.572;10.050;2023-08-24T05:32:30;12.23;;;3.85;;
74471;SDS011;62920;53.572;10.050;2023-08-24T05:34:56;9.43;;;3.47;;
74471;SDS011;62920;53.572;10.050;2023-08-24T05:37:21;10.07;;;3.83;;
74471;SDS011;62920;53.572;10.050;2023-08-24T05:39:46;9.10;;;3.30;;
74471;SDS011;62920;53.572;10.050;2023-08-24T05:42:12;6.80;;;3.47;;
74471;SDS011;62920;53.572;10.050;2023-08-24T05:44:37;5.95;;;3.20;;
74471;SDS011;62920;53.572;10.050;2023-08-24T05:47:03;8.10;;;2.78;;
74471;SDS011;62920;53.572;10.050;2023-08-24T05:49:28;8.07;;;2.88;;
74471;SDS011;62920;53.572;10.050;2023-08-24T05:51:54;6.75;;;2.45;;
74471;SDS011;62920;53.572;10.050;2023-08-24T05:54:19;6.20;;;2.50;;
74471;SDS011;62920;53.572;10.050;2023-08-24T05:56:47;5.40;;;2.33;;
74471;SDS011;62920;53.572;10.050;2023-08-24T05:59:13;7.13;;;2.17;;
74471;SDS011;62920;53.572;10.050;2023-08-24T06:01:39;6.88;;;2.20;;
74471;SDS011;62920;53.572;10.050;2023-08-24T06:04:06;4.25;;;1.92;;
74471;SDS011;62920;53.572;10.050;2023-08-24T06:06:31;7.97;;;2.05;;
74471;SDS011;62920;53.572;10.050;2023-08-24T06:08:57;7.38;;;2.30;;
74471;SDS011;62920;53.572;10.050;2023-08-24T06:11:23;5.47;;;2.22;;
74471;SDS011;62920;53.572;10.050;2023-08-24T06:13:48;4.68;;;1.92;;
74471;SDS011;62920;53.572;10.050;2023-08-24T06:16:14;6.05;;;2.00;;
74471;SDS011;62920;53.572;10.050;2023-08-24T06:18:39;5.68;;;1.77;;
74471;SDS011;62920;53.572;10.050;2023-08-24T06:21:05;5.18;;;1.60;;
74471;SDS011;62920;53.572;10.050;2023-08-24T06:23:30;6.20;;;2.20;;
74471;SDS011;62920;53.572;10.050;2023-08-24T06:25:55;4.88;;;1.50;;
74471;SDS011;62920;53.572;10.050;2023-08-24T06:28:21;4.45;;;1.40;;
74471;SDS011;62920;53.572;10.050;2023-08-24T06:30:46;6.45;;;1.67;;
74471;SDS011;62920;53.572;10.050;2023-08-24T06:33:12;4.88;;;1.67;;
74471;SDS011;62920;53.572;10.050;2023-08-24T06:35:38;6.28;;;1.45;;
74471;SDS011;62920;53.572;10.050;2023-08-24T06:38:04;5.82;;;1.20;;
74471;SDS011;62920;53.572;10.050;2023-08-24T06:40:29;3.78;;;0.95;;
74471;SDS011;62920;53.572;10.050;2023-08-24T06:42:55;6.13;;;1.20;;
74471;SDS011;62920;53.572;10.050;2023-08-24T06:45:21;3.03;;;1.10;;
74471;SDS011;62920;53.572;10.050;2023-08-24T06:47:46;4.63;;;1.55;;
74471;SDS011;62920;53.572;10.050;2023-08-24T06:50:12;7.05;;;1.50;;
74471;SDS011;62920;53.572;10.050;2023-08-24T06:52:37;4.88;;;1.17;;
74471;SDS011;62920;53.572;10.050;2023-08-24T06:55:03;4.95;;;1.35;;
74471;SDS011;62920;53.572;10.050;2023-08-24T06:57:30;5.10;;;1.23;;
74471;SDS011;62920;53.572;10.050;2023-08-24T06:59:55;5.20;;;1.10;;
74471;SDS011;62920;53.572;10.050;2023-08-24T07:02:21;3.83;;;1.00;;
74471;SDS011;62920;53.572;10.050;2023-08-24T07:04:46;4.10;;;1.13;;
74471;SDS011;62920;53.572;10.050;2023-08-24T07:07:11;4.55;;;1.02;;
74471;SDS011;62920;53.572;10.050;2023-08-24T07:09:37;3.97;;;0.90;;
74471;SDS011;62920;53.572;10.050;2023-08-24T07:12:02;3.65;;;1.10;;
74471;SDS011;62920;53.572;10.050;2023-08-24T07:14:31;3.85;;;1.10;;
74471;SDS011;62920;53.572;10.050;2023-08-24T07:16:56;3.95;;;0.95;;
74471;SDS011;62920;53.572;10.050;2023-08-24T07:19:22;4.35;;;1.08;;
74471;SDS011;62920;53.572;10.050;2023-08-24T07:21:47;6.35;;;1.73;;
74471;SDS011;62920;53.572;10.050;2023-08-24T07:24:13;7.78;;;1.35;;
74471;SDS011;62920;53.572;10.050;2023-08-24T07:26:39;6.65;;;1.20;;
74471;SDS011;62920;53.572;10.050;2023-08-24T07:29:06;3.80;;;1.38;;
74471;SDS011;62920;53.572;10.050;2023-08-24T07:31:31;6.55;;;1.30;;
74471;SDS011;62920;53.572;10.050;2023-08-24T07:33:57;3.00;;;1.00;;
74471;SDS011;62920;53.572;10.050;2023-08-24T07:36:23;3.67;;;1.33;;
74471;SDS011;62920;53.572;10.050;2023-08-24T07:38:48;4.07;;;1.10;;
74471;SDS011;62920;53.572;10.050;2023-08-24T07:41:14;3.58;;;1.20;;
74471;SDS011;62920;53.572;10.050;2023-08-24T07:43:39;3.67;;;1.10;;
74471;SDS011;62920;53.572;10.050;2023-08-24T07:46:05;4.53;;;1.45;;
74471;SDS011;62920;53.572;10.050;2023-08-24T07:48:30;5.95;;;1.10;;
74471;SDS011;62920;53.572;10.050;2023-08-24T07:50:56;4.10;;;1.13;;
74471;SDS011;62920;53.572;10.050;2023-08-24T07:53:21;5.40;;;1.38;;
74471;SDS011;62920;53.572;10.050;2023-08-24T07:55:47;3.10;;;1.10;;
74471;SDS011;62920;53.572;10.050;2023-08-24T07:58:12;8.02;;;1.63;;
74471;SDS011;62920;53.572;10.050;2023-08-24T08:00:38;4.03;;;1.13;;
74471;SDS011;62920;53.572;10.050;2023-08-24T08:03:04;3.58;;;1.40;;
74471;SDS011;62920;53.572;10.050;2023-08-24T08:05:29;5.32;;;1.15;;
74471;SDS011;62920;53.572;10.050;2023-08-24T08:07:54;3.58;;;1.40;;
74471;SDS011;62920;53.572;10.050;2023-08-24T08:10:20;4.53;;;1.45;;
74471;SDS011;62920;53.572;10.050;2023-08-24T08:12:46;5.75;;;1.23;;
74471;SDS011;62920;53.572;10.050;2023-08-24T08:15:12;3.95;;;1.38;;
74471;SDS011;62920;53.572;10.050;2023-08-24T08:17:37;3.75;;;1.40;;
74471;SDS011;62920;53.572;10.050;2023-08-24T08:20:03;3.85;;;1.50;;
74471;SDS011;62920;53.572;10.050;2023-08-24T08:22:28;6.97;;;1.55;;
74471;SDS011;62920;53.572;10.050;2023-08-24T08:24:54;5.20;;;1.50;;
74471;SDS011;62920;53.572;10.050;2023-08-24T08:27:22;5.35;;;1.40;;
74471;SDS011;62920;53.572;10.050;2023-08-24T08:29:47;5.30;;;1.38;;
74471;SDS011;62920;53.572;10.050;2023-08-24T08:32:13;5.68;;;1.30;;
74471;SDS011;62920;53.572;10.050;2023-08-24T08:34:38;7.15;;;1.48;;
74471;SDS011;62920;53.572;10.050;2023-08-24T08:37:04;3.33;;;1.20;;
74471;SDS011;62920;53.572;10.050;2023-08-24T08:39:29;6.20;;;1.75;;
74471;SDS011;62920;53.572;10.050;2023-08-24T08:41:55;5.25;;;1.30;;
74471;SDS011;62920;53.572;10.050;2023-08-24T08:44:20;5.15;;;1.23;;
74471;SDS011;62920;53.572;10.050;2023-08-24T08:46:47;5.20;;;1.27;;
74471;SDS011;62920;53.572;10.050;2023-08-24T08:49:14;4.32;;;1.20;;
74471;SDS011;62920;53.572;10.050;2023-08-24T08:51:41;6.15;;;1.30;;
74471;SDS011;62920;53.572;10.050;2023-08-24T08:54:06;5.93;;;1.52;;
74471;SDS011;62920;53.572;10.050;2023-08-24T08:56:32;5.65;;;1.33;;
74471;SDS011;62920;53.572;10.050;2023-08-24T09:01:24;4.00;;;1.38;;
74471;SDS011;62920;53.572;10.050;2023-08-24T09:03:49;5.95;;;1.33;;
74471;SDS011;62920;53.572;10.050;2023-08-24T09:06:16;6.55;;;1.25;;
74471;SDS011;62920;53.572;10.050;2023-08-24T09:08:41;5.20;;;1.35;;
74471;SDS011;62920;53.572;10.050;2023-08-24T09:11:07;5.75;;;1.58;;
74471;SDS011;62920;53.572;10.050;2023-08-24T09:13:34;5.93;;;1.13;;
74471;SDS011;62920;53.572;10.050;2023-08-24T09:16:05;5.15;;;1.20;;
74471;SDS011;62920;53.572;10.050;2023-08-24T09:18:38;6.00;;;0.98;;
74471;SDS011;62920;53.572;10.050;2023-08-24T09:21:11;4.28;;;0.82;;
74471;SDS011;62920;53.572;10.050;2023-08-24T09:23:59;3.17;;;0.82;;
74471;SDS011;62920;53.572;10.050;2023-08-24T09:26:30;3.88;;;1.02;;
74471;SDS011;62920;53.572;10.050;2023-08-24T09:28:56;7.25;;;1.13;;
74471;SDS011;62920;53.572;10.050;2023-08-24T09:31:22;3.85;;;1.00;;
74471;SDS011;62920;53.572;10.050;2023-08-24T09:33:49;4.72;;;1.40;;
74471;SDS011;62920;53.572;10.050;2023-08-24T09:36:14;9.68;;;1.55;;
74471;SDS011;62920;53.572;10.050;2023-08-24T09:38:46;7.35;;;1.20;;
74471;SDS011;62920;53.572;10.050;2023-08-24T09:41:15;5.47;;;1.27;;
74471;SDS011;62920;53.572;10.050;2023-08-24T09:43:41;4.90;;;1.30;;
74471;SDS011;62920;53.572;10.050;2023-08-24T09:46:06;6.22;;;1.60;;
74471;SDS011;62920;53.572;10.050;2023-08-24T09:48:33;7.40;;;1.50;;
74471;SDS011;62920;53.572;10.050;2023-08-24T09:50:58;4.85;;;1.63;;
74471;SDS011;62920;53.572;10.050;2023-08-24T09:53:26;5.32;;;1.60;;
74471;SDS011;62920;53.572;10.050;2023-08-24T09:55:54;7.28;;;1.55;;
74471;SDS011;62920;53.572;10.050;2023-08-24T09:58:24;5.65;;;1.70;;
74471;SDS011;62920;53.572;10.050;2023-08-24T10:00:50;6.35;;;1.77;;
74471;SDS011;62920;53.572;10.050;2023-08-24T10:03:17;6.20;;;1.65;;
74471;SDS011;62920;53.572;10.050;2023-08-24T10:05:47;4.88;;;1.27;;
74471;SDS011;62920;53.572;10.050;2023-08-24T10:08:17;5.10;;;1.60;;
74471;SDS011;62920;53.572;10.050;2023-08-24T10:10:46;5.03;;;1.60;;
74471;SDS011;62920;53.572;10.050;2023-08-24T10:15:46;4.43;;;1.75;;
74471;SDS011;62920;53.572;10.050;2023-08-24T10:18:13;8.68;;;1.80;;
74471;SDS011;62920;53.572;10.050;2023-08-24T10:20:40;4.53;;;1.63;;
74471;SDS011;62920;53.572;10.050;2023-08-24T10:23:07;5.75;;;1.88;;
74471;SDS011;62920;53.572;10.050;2023-08-24T10:25:33;6.93;;;1.90;;
74471;SDS011;62920;53.572;10.050;2023-08-24T10:30:24;5.35;;;1.65;;
74471;SDS011;62920;53.572;10.050;2023-08-24T10:35:18;5.70;;;1.65;;
74471;SDS011;62920;53.572;10.050;2023-08-24T10:37:45;7.68;;;1.80;;
74471;SDS011;62920;53.572;10.050;2023-08-24T10:40:13;6.72;;;1.80;;
74471;SDS011;62920;53.572;10.050;2023-08-24T10:45:12;7.18;;;2.50;;
74471;SDS011;62920;53.572;10.050;2023-08-24T10:47:45;4.63;;;1.70;;
74471;SDS011;62920;53.572;10.050;2023-08-24T10:50:11;5.90;;;2.13;;
74471;SDS011;62920;53.572;10.050;2023-08-24T10:55:05;3.65;;;1.73;;
74471;SDS011;62920;53.572;10.050;2023-08-24T10:57:52;3.75;;;1.90;;
74471;SDS011;62920;53.572;10.050;2023-08-24T11:00:21;7.90;;;2.00;;
74471;SDS011;62920;53.572;10.050;2023-08-24T11:02:48;4.28;;;1.73;;
74471;SDS011;62920;53.572;10.050;2023-08-24T11:05:15;6.45;;;1.90;;
74471;SDS011;62920;53.572;10.050;2023-08-24T11:07:51;6.18;;;2.00;;
74471;SDS011;62920;53.572;10.050;2023-08-24T11:10:18;18.60;;;4.30;;
74471;SDS011;62920;53.572;10.050;2023-08-24T11:15:32;6.97;;;2.40;;
74471;SDS011;62920;53.572;10.050;2023-08-24T11:18:13;4.43;;;1.67;;
74471;SDS011;62920;53.572;10.050;2023-08-24T11:20:48;6.88;;;2.38;;
74471;SDS011;62920;53.572;10.050;2023-08-24T11:23:20;4.78;;;2.13;;
74471;SDS011;62920;53.572;10.050;2023-08-24T11:25:46;5.57;;;2.17;;
74471;SDS011;62920;53.572;10.050;2023-08-24T11:28:16;6.07;;;1.70;;
74471;SDS011;62920;53.572;10.050;2023-08-24T11:30:43;8.02;;;2.03;;
74471;SDS011;62920;53.572;10.050;2023-08-24T11:33:09;5.47;;;2.00;;
74471;SDS011;62920;53.572;10.050;2023-08-24T11:35:36;6.10;;;1.80;;
74471;SDS011;62920;53.572;10.050;2023-08-24T11:38:04;5.28;;;1.90;;
74471;SDS011;62920;53.572;10.050;2023-08-24T11:42:55;6.17;;;1.83;;
74471;SDS011;62920;53.572;10.050;2023-08-24T11:45:21;7.78;;;2.33;;
74471;SDS011;62920;53.572;10.050;2023-08-24T11:50:12;5.63;;;1.85;;
74471;SDS011;62920;53.572;10.050;2023-08-24T11:52:41;7.32;;;2.28;;
74471;SDS011;62920;53.572;10.050;2023-08-24T11:55:07;5.13;;;1.85;;
74471;SDS011;62920;53.572;10.050;2023-08-24T11:57:37;4.10;;;2.00;;
74471;SDS011;62920;53.572;10.050;2023-08-24T12:00:03;5.15;;;1.80;;
74471;SDS011;62920;53.572;10.050;2023-08-24T12:02:30;5.70;;;1.90;;
74471;SDS011;62920;53.572;10.050;2023-08-24T12:04:55;4.13;;;2.05;;
74471;SDS011;62920;53.572;10.050;2023-08-24T12:09:46;6.78;;;2.08;;
74471;SDS011;62920;53.572;10.050;2023-08-24T12:14:41;7.47;;;2.35;;
74471;SDS011;62920;53.572;10.050;2023-08-24T12:17:10;6.35;;;2.08;;
74471;SDS011;62920;53.572;10.050;2023-08-24T12:19:35;5.88;;;2.28;;
74471;SDS011;62920;53.572;10.050;2023-08-24T12:22:01;6.60;;;2.10;;
74471;SDS011;62920;53.572;10.050;2023-08-24T12:26:55;7.70;;;2.33;;
74471;SDS011;62920;53.572;10.050;2023-08-24T12:29:22;7.28;;;2.15;;
74471;SDS011;62920;53.572;10.050;2023-08-24T12:31:47;7.68;;;2.22;;
74471;SDS011;62920;53.572;10.050;2023-08-24T12:36:39;7.75;;;2.20;;
74471;SDS011;62920;53.572;10.050;2023-08-24T12:39:06;4.40;;;1.92;;
74471;SDS011;62920;53.572;10.050;2023-08-24T12:41:32;8.00;;;2.28;;
74471;SDS011;62920;53.572;10.050;2023-08-24T12:43:59;4.00;;;1.90;;
74471;SDS011;62920;53.572;10.050;2023-08-24T12:46:24;4.05;;;1.95;;
74471;SDS011;62920;53.572;10.050;2023-08-24T12:51:16;3.88;;;1.83;;
74471;SDS011;62920;53.572;10.050;2023-08-24T12:56:07;7.13;;;2.10;;
74471;SDS011;62920;53.572;10.050;2023-08-24T12:58:32;5.80;;;1.95;;
74471;SDS011;62920;53.572;10.050;2023-08-24T13:00:58;6.18;;;2.00;;
74471;SDS011;62920;53.572;10.050;2023-08-24T13:03:24;7.05;;;1.90;;
74471;SDS011;62920;53.572;10.050;2023-08-24T13:05:49;4.90;;;1.83;;
74471;SDS011;62920;53.572;10.050;2023-08-24T13:10:40;6.57;;;1.90;;
74471;SDS011;62920;53.572;10.050;2023-08-24T13:13:05;5.03;;;1.80;;
74471;SDS011;62920;53.572;10.050;2023-08-24T13:15:31;5.35;;;1.83;;
74471;SDS011;62920;53.572;10.050;2023-08-24T13:17:56;6.15;;;1.70;;
74471;SDS011;62920;53.572;10.050;2023-08-24T13:22:48;5.55;;;1.63;;
74471;SDS011;62920;53.572;10.050;2023-08-24T13:27:38;5.77;;;2.00;;
74471;SDS011;62920;53.572;10.050;2023-08-24T13:30:04;3.58;;;1.73;;
74471;SDS011;62920;53.572;10.050;2023-08-24T13:32:30;5.15;;;2.00;;
74471;SDS011;62920;53.572;10.050;2023-08-24T13:37:21;5.37;;;1.67;;
74471;SDS011;62920;53.572;10.050;2023-08-24T13:39:47;4.05;;;1.52;;
74471;SDS011;62920;53.572;10.050;2023-08-24T13:42:14;6.80;;;1.60;;
74471;SDS011;62920;53.572;10.050;2023-08-24T13:47:05;8.83;;;1.60;;
74471;SDS011;62920;53.572;10.050;2023-08-24T13:51:55;6.25;;;1.73;;
74471;SDS011;62920;53.572;10.050;2023-08-24T13:54:21;3.97;;;1.52;;
74471;SDS011;62920;53.572;10.050;2023-08-24T13:59:12;4.50;;;1.80;;
74471;SDS011;62920;53.572;10.050;2023-08-24T14:01:38;3.78;;;1.40;;
74471;SDS011;62920;53.572;10.050;2023-08-24T14:04:04;4.45;;;1.50;;
74471;SDS011;62920;53.572;10.050;2023-08-24T14:08:56;4.03;;;1.50;;
74471;SDS011;62920;53.572;10.050;2023-08-24T14:11:22;4.70;;;2.00;;
74471;SDS011;62920;53.572;10.050;2023-08-24T14:16:12;6.00;;;1.87;;
74471;SDS011;62920;53.572;10.050;2023-08-24T14:21:03;6.53;;;1.80;;
74471;SDS011;62920;53.572;10.050;2023-08-24T14:25:54;5.00;;;1.70;;
74471;SDS011;62920;53.572;10.050;2023-08-24T14:30:46;4.43;;;1.67;;
74471;SDS011;62920;53.572;10.050;2023-08-24T14:35:37;5.70;;;1.67;;
74471;SDS011;62920;53.572;10.050;2023-08-24T14:40:27;3.80;;;1.50;;
74471;SDS011;62920;53.572;10.050;2023-08-24T14:45:19;4.50;;;1.63;;
74471;SDS011;62920;53.572;10.050;2023-08-24T14:50:11;3.40;;;1.55;;
74471;SDS011;62920;53.572;10.050;2023-08-24T14:55:03;6.45;;;2.30;;
74471;SDS011;62920;53.572;10.050;2023-08-24T14:59:54;5.87;;;1.80;;
74471;SDS011;62920;53.572;10.050;2023-08-24T15:04:44;3.63;;;1.77;;
74471;SDS011;62920;53.572;10.050;2023-08-24T15:09:36;4.10;;;1.45;;
74471;SDS011;62920;53.572;10.050;2023-08-24T15:14:29;5.82;;;2.05;;
74471;SDS011;62920;53.572;10.050;2023-08-24T15:16:56;5.53;;;1.63;;
74471;SDS011;62920;53.572;10.050;2023-08-24T15:21:46;5.83;;;1.80;;
74471;SDS011;62920;53.572;10.050;2023-08-24T15:24:12;8.48;;;1.80;;
74471;SDS011;62920;53.572;10.050;2023-08-24T15:26:37;4.20;;;1.98;;
74471;SDS011;62920;53.572;10.050;2023-08-24T15:31:39;4.78;;;1.77;;
74471;SDS011;62920;53.572;10.050;2023-08-24T15:34:05;4.25;;;1.80;;
74471;SDS011;62920;53.572;10.050;2023-08-24T15:36:30;5.30;;;1.80;;
74471;SDS011;62920;53.572;10.050;2023-08-24T15:41:22;5.70;;;1.97;;
74471;SDS011;62920;53.572;10.050;2023-08-24T15:43:47;5.25;;;1.95;;
74471;SDS011;62920;53.572;10.050;2023-08-24T15:48:38;4.32;;;2.00;;
74471;SDS011;62920;53.572;10.050;2023-08-24T15:51:04;5.88;;;1.85;;
74471;SDS011;62920;53.572;10.050;2023-08-24T15:53:31;4.45;;;1.90;;
74471;SDS011;62920;53.572;10.050;2023-08-24T15:55:56;4.28;;;1.83;;
74471;SDS011;62920;53.572;10.050;2023-08-24T15:58:22;6.95;;;1.77;;
74471;SDS011;62920;53.572;10.050;2023-08-24T16:00:47;4.55;;;2.30;;
74471;SDS011;62920;53.572;10.050;2023-08-24T16:03:12;4.53;;;1.80;;
74471;SDS011;62920;53.572;10.050;2023-08-24T16:05:38;6.30;;;2.10;;
74471;SDS011;62920;53.572;10.050;2023-08-24T16:08:04;6.90;;;2.20;;
74471;SDS011;62920;53.572;10.050;2023-08-24T16:10:30;7.35;;;2.00;;
74471;SDS011;62920;53.572;10.050;2023-08-24T16:12:56;6.03;;;2.10;;